Skip Navigation LinksHome page > Weather > Current weather Skip Navigation Links

Current Weather

Eureka, Nunavut

For information only: do not use for flight planning or navigation.
Latest weather
Observation time Wednesday, August 27, 2014 8:00 PM CDT
Local time Wednesday, August 27, 2014 8:17 PM CDT
Flight conditions Visual Meteorological Conditions
Winds
Wind direction South-Southeast (150°)
Wind speed 10 mph
Visibility 15 mi.
Present weather light rain
Sky condition
Ceiling 6,000 ft. overcast
Cloud layer few clouds 2,000 ft.
Cloud layer scattered clouds 4,000 ft.
Cloud layer overcast 6,000 ft.
Temperature 36°F
Dewpoint 30°F
Altimeter 29.64 in.Hg
Derived measurements
Relative humidity 80%
Wind chill 28°F
Density altitude -1136 ft.
Sea-level pressure 29.65 in.Hg
METAR CWEU 280100Z 15009KT 15SM -RA FEW020 SCT040 OVC060 02/M01 A2964 RMK SF1SC3SC4 SLP039

Settings

Location code

InnerDrive.Weather 4.0.5341.0 Release CLR 4.0.30319.34014
Copyright ©2014 Inner Drive Technology. All rights reserved. Portions Copyright ©1986-2014 David Braverman.

Find weather

Site navigation


Skip Navigation Links

Place info

Page info

PayPal - The safer, easier way to pay online!

Return home.

Copyright ©2014 Inner Drive Technology. Purveyors of fine, hand-crafted computer software. Page printed 2014-08-28T01:17:23 UTC.